sensor_id;sensor_type;location;lat;lon;timestamp;temperature;humidity
71206;SHT31;58935;54.498;18.544;2023-07-02T00:00:20;18.41;74.96
71206;SHT31;58935;54.498;18.544;2023-07-02T00:02:46;18.39;75.19
71206;SHT31;58935;54.498;18.544;2023-07-02T00:05:11;18.39;75.25
71206;SHT31;58935;54.498;18.544;2023-07-02T00:07:37;18.37;75.37
71206;SHT31;58935;54.498;18.544;2023-07-02T00:10:03;18.36;75.55
71206;SHT31;58935;54.498;18.544;2023-07-02T00:12:29;18.33;75.79
71206;SHT31;58935;54.498;18.544;2023-07-02T00:14:55;18.29;76.03
71206;SHT31;58935;54.498;18.544;2023-07-02T00:17:21;18.27;76.25
71206;SHT31;58935;54.498;18.544;2023-07-02T00:19:46;18.26;76.60
71206;SHT31;58935;54.498;18.544;2023-07-02T00:22:12;18.21;76.87
71206;SHT31;58935;54.498;18.544;2023-07-02T00:24:37;18.17;77.09
71206;SHT31;58935;54.498;18.544;2023-07-02T00:27:03;18.12;77.37
71206;SHT31;58935;54.498;18.544;2023-07-02T00:29:29;18.09;77.50
71206;SHT31;58935;54.498;18.544;2023-07-02T00:31:54;18.06;77.50
71206;SHT31;58935;54.498;18.544;2023-07-02T00:34:19;18.02;77.50
71206;SHT31;58935;54.498;18.544;2023-07-02T00:36:45;18.01;77.66
71206;SHT31;58935;54.498;18.544;2023-07-02T00:39:11;17.97;77.82
71206;SHT31;58935;54.498;18.544;2023-07-02T00:41:37;17.96;77.89
71206;SHT31;58935;54.498;18.544;2023-07-02T00:44:03;17.95;77.99
71206;SHT31;58935;54.498;18.544;2023-07-02T00:46:31;17.92;78.07
71206;SHT31;58935;54.498;18.544;2023-07-02T00:48:56;17.90;78.20
71206;SHT31;58935;54.498;18.544;2023-07-02T00:51:29;17.87;78.27
71206;SHT31;58935;54.498;18.544;2023-07-02T00:53:57;17.84;78.50
71206;SHT31;58935;54.498;18.544;2023-07-02T00:56:26;17.81;78.57
71206;SHT31;58935;54.498;18.544;2023-07-02T00:58:53;17.77;78.59
71206;SHT31;58935;54.498;18.544;2023-07-02T01:01:26;17.74;78.65
71206;SHT31;58935;54.498;18.544;2023-07-02T01:03:54;17.70;78.77
71206;SHT31;58935;54.498;18.544;2023-07-02T01:06:24;17.68;78.87
71206;SHT31;58935;54.498;18.544;2023-07-02T01:08:56;17.65;78.88
71206;SHT31;58935;54.498;18.544;2023-07-02T01:14:01;17.58;79.13
71206;SHT31;58935;54.498;18.544;2023-07-02T01:16:32;17.54;79.26
71206;SHT31;58935;54.498;18.544;2023-07-02T01:18:59;17.51;79.38
71206;SHT31;58935;54.498;18.544;2023-07-02T01:21:29;17.48;79.63
71206;SHT31;58935;54.498;18.544;2023-07-02T01:23:58;17.43;79.74
71206;SHT31;58935;54.498;18.544;2023-07-02T01:26:29;17.40;79.88
71206;SHT31;58935;54.498;18.544;2023-07-02T01:28:58;17.38;80.08
71206;SHT31;58935;54.498;18.544;2023-07-02T01:31:25;17.34;80.21
71206;SHT31;58935;54.498;18.544;2023-07-02T01:33:53;17.31;80.50
71206;SHT31;58935;54.498;18.544;2023-07-02T01:36:19;17.28;80.63
71206;SHT31;58935;54.498;18.544;2023-07-02T01:38:44;17.25;80.80
71206;SHT31;58935;54.498;18.544;2023-07-02T01:41:09;17.23;80.89
71206;SHT31;58935;54.498;18.544;2023-07-02T01:43:35;17.22;81.09
71206;SHT31;58935;54.498;18.544;2023-07-02T01:46:02;17.19;81.24
71206;SHT31;58935;54.498;18.544;2023-07-02T01:48:28;17.18;81.36
71206;SHT31;58935;54.498;18.544;2023-07-02T01:50:53;17.17;81.53
71206;SHT31;58935;54.498;18.544;2023-07-02T01:53:18;17.16;81.62
71206;SHT31;58935;54.498;18.544;2023-07-02T01:55:44;17.16;81.75
71206;SHT31;58935;54.498;18.544;2023-07-02T01:58:11;17.15;81.86
71206;SHT31;58935;54.498;18.544;2023-07-02T02:00:37;17.14;81.84
71206;SHT31;58935;54.498;18.544;2023-07-02T02:03:02;17.14;81.89
71206;SHT31;58935;54.498;18.544;2023-07-02T02:05:29;17.14;81.85
71206;SHT31;58935;54.498;18.544;2023-07-02T02:07:54;17.17;82.00
71206;SHT31;58935;54.498;18.544;2023-07-02T02:10:22;17.19;82.03
71206;SHT31;58935;54.498;18.544;2023-07-02T02:12:47;17.20;82.07
71206;SHT31;58935;54.498;18.544;2023-07-02T02:15:13;17.23;82.11
71206;SHT31;58935;54.498;18.544;2023-07-02T02:17:41;17.25;82.15
71206;SHT31;58935;54.498;18.544;2023-07-02T02:20:07;17.27;82.19
71206;SHT31;58935;54.498;18.544;2023-07-02T02:22:33;17.26;82.30
71206;SHT31;58935;54.498;18.544;2023-07-02T02:24:59;17.25;82.34
71206;SHT31;58935;54.498;18.544;2023-07-02T02:27:26;17.27;82.38
71206;SHT31;58935;54.498;18.544;2023-07-02T02:29:55;17.27;82.42
71206;SHT31;58935;54.498;18.544;2023-07-02T02:32:20;17.28;82.37
71206;SHT31;58935;54.498;18.544;2023-07-02T02:34:47;17.27;82.45
71206;SHT31;58935;54.498;18.544;2023-07-02T02:37:12;17.28;82.40
71206;SHT31;58935;54.498;18.544;2023-07-02T02:39:38;17.29;82.48
71206;SHT31;58935;54.498;18.544;2023-07-02T02:42:03;17.30;82.58
71206;SHT31;58935;54.498;18.544;2023-07-02T02:44:29;17.31;82.60
71206;SHT31;58935;54.498;18.544;2023-07-02T02:46:55;17.33;82.58
71206;SHT31;58935;54.498;18.544;2023-07-02T02:49:20;17.34;82.61
71206;SHT31;58935;54.498;18.544;2023-07-02T02:51:50;17.35;82.69
71206;SHT31;58935;54.498;18.544;2023-07-02T02:54:15;17.35;82.70
71206;SHT31;58935;54.498;18.544;2023-07-02T02:56:43;17.35;82.91
71206;SHT31;58935;54.498;18.544;2023-07-02T02:59:10;17.34;83.05
71206;SHT31;58935;54.498;18.544;2023-07-02T03:01:35;17.34;83.16
71206;SHT31;58935;54.498;18.544;2023-07-02T03:04:03;17.34;83.23
71206;SHT31;58935;54.498;18.544;2023-07-02T03:06:29;17.34;83.31
71206;SHT31;58935;54.498;18.544;2023-07-02T03:08:57;17.34;83.46
71206;SHT31;58935;54.498;18.544;2023-07-02T03:11:25;17.34;83.55
71206;SHT31;58935;54.498;18.544;2023-07-02T03:13:50;17.33;83.68
71206;SHT31;58935;54.498;18.544;2023-07-02T03:16:16;17.32;83.80
71206;SHT31;58935;54.498;18.544;2023-07-02T03:18:46;17.32;83.91
71206;SHT31;58935;54.498;18.544;2023-07-02T03:21:12;17.31;84.06
71206;SHT31;58935;54.498;18.544;2023-07-02T03:23:37;17.31;84.10
71206;SHT31;58935;54.498;18.544;2023-07-02T03:26:05;17.33;84.11
71206;SHT31;58935;54.498;18.544;2023-07-02T03:28:32;17.35;84.17
71206;SHT31;58935;54.498;18.544;2023-07-02T03:30:59;17.37;84.20
71206;SHT31;58935;54.498;18.544;2023-07-02T03:33:25;17.39;84.23
71206;SHT31;58935;54.498;18.544;2023-07-02T03:35:50;17.41;84.24
71206;SHT31;58935;54.498;18.544;2023-07-02T03:38:15;17.43;84.30
71206;SHT31;58935;54.498;18.544;2023-07-02T03:40:41;17.43;84.33
71206;SHT31;58935;54.498;18.544;2023-07-02T03:43:06;17.43;84.31
71206;SHT31;58935;54.498;18.544;2023-07-02T03:45:31;17.43;84.35
71206;SHT31;58935;54.498;18.544;2023-07-02T03:47:57;17.43;84.39
71206;SHT31;58935;54.498;18.544;2023-07-02T03:50:22;17.44;84.41
71206;SHT31;58935;54.498;18.544;2023-07-02T03:52:47;17.44;84.44
71206;SHT31;58935;54.498;18.544;2023-07-02T03:55:15;17.44;84.48
71206;SHT31;58935;54.498;18.544;2023-07-02T03:57:40;17.47;84.50
71206;SHT31;58935;54.498;18.544;2023-07-02T04:00:06;17.50;84.56
71206;SHT31;58935;54.498;18.544;2023-07-02T04:02:35;17.52;84.53
71206;SHT31;58935;54.498;18.544;2023-07-02T04:05:00;17.54;84.50
71206;SHT31;58935;54.498;18.544;2023-07-02T04:07:27;17.55;84.50
71206;SHT31;58935;54.498;18.544;2023-07-02T04:09:53;17.57;84.54
71206;SHT31;58935;54.498;18.544;2023-07-02T04:12:18;17.60;84.55
71206;SHT31;58935;54.498;18.544;2023-07-02T04:14:44;17.64;84.51
71206;SHT31;58935;54.498;18.544;2023-07-02T04:17:12;17.69;84.43
71206;SHT31;58935;54.498;18.544;2023-07-02T04:19:37;17.73;84.39
71206;SHT31;58935;54.498;18.544;2023-07-02T04:22:02;17.76;84.40
71206;SHT31;58935;54.498;18.544;2023-07-02T04:24:28;17.84;84.32
71206;SHT31;58935;54.498;18.544;2023-07-02T04:26:53;17.94;84.24
71206;SHT31;58935;54.498;18.544;2023-07-02T04:29:19;18.02;84.06
71206;SHT31;58935;54.498;18.544;2023-07-02T04:31:45;18.16;83.91
71206;SHT31;58935;54.498;18.544;2023-07-02T04:34:10;18.34;83.54
71206;SHT31;58935;54.498;18.544;2023-07-02T04:36:38;18.48;83.13
71206;SHT31;58935;54.498;18.544;2023-07-02T04:39:03;18.63;82.85
71206;SHT31;58935;54.498;18.544;2023-07-02T04:41:29;18.70;82.14
71206;SHT31;58935;54.498;18.544;2023-07-02T04:43:57;18.70;81.76
71206;SHT31;58935;54.498;18.544;2023-07-02T04:46:22;18.66;81.55
71206;SHT31;58935;54.498;18.544;2023-07-02T04:48:48;18.60;81.71
71206;SHT31;58935;54.498;18.544;2023-07-02T04:51:13;18.55;81.80
71206;SHT31;58935;54.498;18.544;2023-07-02T04:53:39;18.55;81.90
71206;SHT31;58935;54.498;18.544;2023-07-02T04:56:04;18.54;81.93
71206;SHT31;58935;54.498;18.544;2023-07-02T04:58:32;18.54;81.91
71206;SHT31;58935;54.498;18.544;2023-07-02T05:00:58;18.50;81.84
71206;SHT31;58935;54.498;18.544;2023-07-02T05:03:23;18.45;81.97
71206;SHT31;58935;54.498;18.544;2023-07-02T05:05:51;18.44;82.13
71206;SHT31;58935;54.498;18.544;2023-07-02T05:08:16;18.44;82.26
71206;SHT31;58935;54.498;18.544;2023-07-02T05:10:41;18.45;82.33
71206;SHT31;58935;54.498;18.544;2023-07-02T05:13:07;18.47;82.23
71206;SHT31;58935;54.498;18.544;2023-07-02T05:15:32;18.50;82.36
71206;SHT31;58935;54.498;18.544;2023-07-02T05:17:57;18.53;82.18
71206;SHT31;58935;54.498;18.544;2023-07-02T05:20:23;18.61;82.19
71206;SHT31;58935;54.498;18.544;2023-07-02T05:22:48;18.68;81.80
71206;SHT31;58935;54.498;18.544;2023-07-02T05:25:16;18.71;81.69
71206;SHT31;58935;54.498;18.544;2023-07-02T05:27:42;18.75;81.68
71206;SHT31;58935;54.498;18.544;2023-07-02T05:30:07;18.79;81.36
71206;SHT31;58935;54.498;18.544;2023-07-02T05:32:34;18.79;81.20
71206;SHT31;58935;54.498;18.544;2023-07-02T05:35:00;18.85;81.25
71206;SHT31;58935;54.498;18.544;2023-07-02T05:37:25;18.90;80.86
71206;SHT31;58935;54.498;18.544;2023-07-02T05:39:50;18.92;80.58
71206;SHT31;58935;54.498;18.544;2023-07-02T05:42:18;18.94;80.37
71206;SHT31;58935;54.498;18.544;2023-07-02T05:44:43;18.96;80.46
71206;SHT31;58935;54.498;18.544;2023-07-02T05:47:13;18.98;80.27
71206;SHT31;58935;54.498;18.544;2023-07-02T05:49:38;19.01;80.07
71206;SHT31;58935;54.498;18.544;2023-07-02T05:52:07;18.98;79.97
71206;SHT31;58935;54.498;18.544;2023-07-02T05:54:33;18.94;79.91
71206;SHT31;58935;54.498;18.544;2023-07-02T05:56:58;18.90;79.78
71206;SHT31;58935;54.498;18.544;2023-07-02T05:59:26;18.85;79.84
71206;SHT31;58935;54.498;18.544;2023-07-02T06:01:51;18.82;80.18
71206;SHT31;58935;54.498;18.544;2023-07-02T06:04:17;18.80;80.31
71206;SHT31;58935;54.498;18.544;2023-07-02T06:06:42;18.76;80.37
71206;SHT31;58935;54.498;18.544;2023-07-02T06:09:07;18.71;80.43
71206;SHT31;58935;54.498;18.544;2023-07-02T06:11:33;18.67;80.56
71206;SHT31;58935;54.498;18.544;2023-07-02T06:13:58;18.65;80.82
71206;SHT31;58935;54.498;18.544;2023-07-02T06:16:23;18.64;80.84
71206;SHT31;58935;54.498;18.544;2023-07-02T06:18:50;18.59;80.86
71206;SHT31;58935;54.498;18.544;2023-07-02T06:21:16;18.54;81.07
71206;SHT31;58935;54.498;18.544;2023-07-02T06:23:42;18.50;81.47
71206;SHT31;58935;54.498;18.544;2023-07-02T06:26:09;18.44;81.71
71206;SHT31;58935;54.498;18.544;2023-07-02T06:28:35;18.36;81.88
71206;SHT31;58935;54.498;18.544;2023-07-02T06:31:01;18.32;82.10
71206;SHT31;58935;54.498;18.544;2023-07-02T06:33:26;18.29;82.23
71206;SHT31;58935;54.498;18.544;2023-07-02T06:35:52;18.28;82.40
71206;SHT31;58935;54.498;18.544;2023-07-02T06:38:17;18.25;82.57
71206;SHT31;58935;54.498;18.544;2023-07-02T06:40:42;18.23;82.77
71206;SHT31;58935;54.498;18.544;2023-07-02T06:43:10;18.20;83.14
71206;SHT31;58935;54.498;18.544;2023-07-02T06:45:38;18.15;83.10
71206;SHT31;58935;54.498;18.544;2023-07-02T06:48:03;18.08;83.32
71206;SHT31;58935;54.498;18.544;2023-07-02T06:50:29;18.02;83.46
71206;SHT31;58935;54.498;18.544;2023-07-02T06:52:54;17.97;83.32
71206;SHT31;58935;54.498;18.544;2023-07-02T06:55:19;17.92;83.26
71206;SHT31;58935;54.498;18.544;2023-07-02T06:57:45;17.91;83.26
71206;SHT31;58935;54.498;18.544;2023-07-02T07:00:12;17.89;83.17
71206;SHT31;58935;54.498;18.544;2023-07-02T07:02:38;17.80;82.96
71206;SHT31;58935;54.498;18.544;2023-07-02T07:05:04;17.71;82.68
71206;SHT31;58935;54.498;18.544;2023-07-02T07:07:30;17.68;82.74
71206;SHT31;58935;54.498;18.544;2023-07-02T07:09:57;17.58;82.15
71206;SHT31;58935;54.498;18.544;2023-07-02T07:12:22;17.47;81.55
71206;SHT31;58935;54.498;18.544;2023-07-02T07:14:47;17.39;81.03
71206;SHT31;58935;54.498;18.544;2023-07-02T07:17:12;17.33;80.50
71206;SHT31;58935;54.498;18.544;2023-07-02T07:19:40;17.31;80.26
71206;SHT31;58935;54.498;18.544;2023-07-02T07:22:10;17.30;80.50
71206;SHT31;58935;54.498;18.544;2023-07-02T07:24:35;17.31;80.51
71206;SHT31;58935;54.498;18.544;2023-07-02T07:27:00;17.33;80.71
71206;SHT31;58935;54.498;18.544;2023-07-02T07:29:28;17.34;80.69
71206;SHT31;58935;54.498;18.544;2023-07-02T07:31:53;17.36;80.52
71206;SHT31;58935;54.498;18.544;2023-07-02T07:34:19;17.38;80.55
71206;SHT31;58935;54.498;18.544;2023-07-02T07:36:44;17.41;80.53
71206;SHT31;58935;54.498;18.544;2023-07-02T07:39:10;17.46;80.08
71206;SHT31;58935;54.498;18.544;2023-07-02T07:41:37;17.48;79.69
71206;SHT31;58935;54.498;18.544;2023-07-02T07:44:03;17.49;79.51
71206;SHT31;58935;54.498;18.544;2023-07-02T07:46:28;17.50;79.24
71206;SHT31;58935;54.498;18.544;2023-07-02T07:48:54;17.48;78.77
71206;SHT31;58935;54.498;18.544;2023-07-02T07:51:19;17.48;78.54
71206;SHT31;58935;54.498;18.544;2023-07-02T07:53:44;17.45;78.53
71206;SHT31;58935;54.498;18.544;2023-07-02T07:56:10;17.37;77.71
71206;SHT31;58935;54.498;18.544;2023-07-02T07:58:35;17.26;77.21
71206;SHT31;58935;54.498;18.544;2023-07-02T08:01:00;17.19;77.77
71206;SHT31;58935;54.498;18.544;2023-07-02T08:03:26;17.12;78.31
71206;SHT31;58935;54.498;18.544;2023-07-02T08:05:51;17.06;78.48
71206;SHT31;58935;54.498;18.544;2023-07-02T08:08:16;16.99;78.88
71206;SHT31;58935;54.498;18.544;2023-07-02T08:10:42;16.93;78.79
71206;SHT31;58935;54.498;18.544;2023-07-02T08:13:07;16.89;79.02
71206;SHT31;58935;54.498;18.544;2023-07-02T08:15:33;16.87;78.99
71206;SHT31;58935;54.498;18.544;2023-07-02T08:17:59;16.88;79.00
71206;SHT31;58935;54.498;18.544;2023-07-02T08:20:25;16.91;79.28
71206;SHT31;58935;54.498;18.544;2023-07-02T08:22:50;16.96;79.54
71206;SHT31;58935;54.498;18.544;2023-07-02T08:25:17;16.98;79.22
71206;SHT31;58935;54.498;18.544;2023-07-02T08:27:44;16.99;79.55
71206;SHT31;58935;54.498;18.544;2023-07-02T08:30:10;17.03;79.24
71206;SHT31;58935;54.498;18.544;2023-07-02T08:32:36;17.10;79.32
71206;SHT31;58935;54.498;18.544;2023-07-02T08:35:01;17.20;79.51
71206;SHT31;58935;54.498;18.544;2023-07-02T08:37:27;17.30;79.38
71206;SHT31;58935;54.498;18.544;2023-07-02T08:39:54;17.43;79.21
71206;SHT31;58935;54.498;18.544;2023-07-02T08:42:20;17.56;78.73
71206;SHT31;58935;54.498;18.544;2023-07-02T08:44:46;17.67;78.60
71206;SHT31;58935;54.498;18.544;2023-07-02T08:47:12;17.80;78.50
71206;SHT31;58935;54.498;18.544;2023-07-02T08:49:39;17.93;77.84
71206;SHT31;58935;54.498;18.544;2023-07-02T08:52:06;18.09;77.69
71206;SHT31;58935;54.498;18.544;2023-07-02T08:54:32;18.23;76.84
71206;SHT31;58935;54.498;18.544;2023-07-02T08:56:57;18.34;75.33
71206;SHT31;58935;54.498;18.544;2023-07-02T08:59:30;18.44;75.30
71206;SHT31;58935;54.498;18.544;2023-07-02T09:01:55;18.58;75.14
71206;SHT31;58935;54.498;18.544;2023-07-02T09:04:22;18.72;74.27
71206;SHT31;58935;54.498;18.544;2023-07-02T09:06:51;18.82;73.21
71206;SHT31;58935;54.498;18.544;2023-07-02T09:09:31;18.92;73.09
71206;SHT31;58935;54.498;18.544;2023-07-02T09:11:57;19.03;73.50
71206;SHT31;58935;54.498;18.544;2023-07-02T09:14:25;19.10;72.90
71206;SHT31;58935;54.498;18.544;2023-07-02T09:19:28;19.26;71.66
71206;SHT31;58935;54.498;18.544;2023-07-02T09:21:56;19.43;71.24
71206;SHT31;58935;54.498;18.544;2023-07-02T09:24:26;19.55;70.07
71206;SHT31;58935;54.498;18.544;2023-07-02T09:26:55;19.55;69.70
71206;SHT31;58935;54.498;18.544;2023-07-02T09:29:25;19.53;70.24
71206;SHT31;58935;54.498;18.544;2023-07-02T09:31:57;19.51;70.02
71206;SHT31;58935;54.498;18.544;2023-07-02T09:34:27;19.51;69.68
71206;SHT31;58935;54.498;18.544;2023-07-02T09:36:55;19.55;68.98
71206;SHT31;58935;54.498;18.544;2023-07-02T09:39:25;19.53;67.90
71206;SHT31;58935;54.498;18.544;2023-07-02T09:41:56;19.51;67.96
71206;SHT31;58935;54.498;18.544;2023-07-02T09:44:26;19.55;68.50
71206;SHT31;58935;54.498;18.544;2023-07-02T09:49:33;19.68;68.34
71206;SHT31;58935;54.498;18.544;2023-07-02T09:52:04;19.80;68.21
71206;SHT31;58935;54.498;18.544;2023-07-02T09:54:32;19.91;67.12
71206;SHT31;58935;54.498;18.544;2023-07-02T09:57:02;19.96;64.91
71206;SHT31;58935;54.498;18.544;2023-07-02T09:59:28;19.98;64.16
71206;SHT31;58935;54.498;18.544;2023-07-02T10:01:55;20.02;64.42
71206;SHT31;58935;54.498;18.544;2023-07-02T10:04:23;20.01;63.23
71206;SHT31;58935;54.498;18.544;2023-07-02T10:06:50;19.98;63.27
71206;SHT31;58935;54.498;18.544;2023-07-02T10:09:34;20.01;63.30
71206;SHT31;58935;54.498;18.544;2023-07-02T10:12:14;20.11;63.91
71206;SHT31;58935;54.498;18.544;2023-07-02T10:14:47;20.26;62.87
71206;SHT31;58935;54.498;18.544;2023-07-02T10:19:51;20.28;61.63
71206;SHT31;58935;54.498;18.544;2023-07-02T10:22:18;20.21;62.67
71206;SHT31;58935;54.498;18.544;2023-07-02T10:27:32;20.11;63.38
71206;SHT31;58935;54.498;18.544;2023-07-02T10:30:00;20.08;63.39
71206;SHT31;58935;54.498;18.544;2023-07-02T10:32:28;20.10;63.83
71206;SHT31;58935;54.498;18.544;2023-07-02T10:34:54;20.13;63.98
71206;SHT31;58935;54.498;18.544;2023-07-02T10:37:20;20.14;64.07
71206;SHT31;58935;54.498;18.544;2023-07-02T10:39:46;20.18;64.13
71206;SHT31;58935;54.498;18.544;2023-07-02T10:42:12;20.27;63.85
71206;SHT31;58935;54.498;18.544;2023-07-02T10:47:12;20.46;62.70
71206;SHT31;58935;54.498;18.544;2023-07-02T10:49:37;20.42;61.20
71206;SHT31;58935;54.498;18.544;2023-07-02T10:52:02;20.36;61.97
71206;SHT31;58935;54.498;18.544;2023-07-02T10:57:05;20.38;61.05
71206;SHT31;58935;54.498;18.544;2023-07-02T10:59:32;20.43;60.40
71206;SHT31;58935;54.498;18.544;2023-07-02T11:01:58;20.45;60.84
71206;SHT31;58935;54.498;18.544;2023-07-02T11:04:27;20.44;60.08
71206;SHT31;58935;54.498;18.544;2023-07-02T11:06:53;20.41;58.67
71206;SHT31;58935;54.498;18.544;2023-07-02T11:09:19;20.39;57.35
71206;SHT31;58935;54.498;18.544;2023-07-02T11:16:54;20.11;55.58
71206;SHT31;58935;54.498;18.544;2023-07-02T11:19:20;19.98;55.84
71206;SHT31;58935;54.498;18.544;2023-07-02T11:26:54;19.78;57.09
71206;SHT31;58935;54.498;18.544;2023-07-02T11:29:20;19.79;57.10
71206;SHT31;58935;54.498;18.544;2023-07-02T11:31:45;19.84;57.16
71206;SHT31;58935;54.498;18.544;2023-07-02T11:34:12;19.96;57.53
71206;SHT31;58935;54.498;18.544;2023-07-02T11:36:40;20.08;57.41
71206;SHT31;58935;54.498;18.544;2023-07-02T11:39:09;20.23;57.25
71206;SHT31;58935;54.498;18.544;2023-07-02T11:41:37;20.43;57.75
71206;SHT31;58935;54.498;18.544;2023-07-02T11:44:06;20.69;57.31
71206;SHT31;58935;54.498;18.544;2023-07-02T11:46:32;20.96;57.07
71206;SHT31;58935;54.498;18.544;2023-07-02T11:49:01;21.12;55.79
71206;SHT31;58935;54.498;18.544;2023-07-02T11:51:27;21.04;55.42
71206;SHT31;58935;54.498;18.544;2023-07-02T11:53:53;20.89;56.25
71206;SHT31;58935;54.498;18.544;2023-07-02T11:56:18;20.76;57.19
71206;SHT31;58935;54.498;18.544;2023-07-02T11:58:44;20.61;57.74
71206;SHT31;58935;54.498;18.544;2023-07-02T12:01:09;20.45;58.54
71206;SHT31;58935;54.498;18.544;2023-07-02T12:03:35;20.31;59.29
71206;SHT31;58935;54.498;18.544;2023-07-02T12:06:00;20.28;60.27
71206;SHT31;58935;54.498;18.544;2023-07-02T12:08:28;20.32;59.58
71206;SHT31;58935;54.498;18.544;2023-07-02T12:10:54;20.41;59.73
71206;SHT31;58935;54.498;18.544;2023-07-02T12:13:19;20.53;58.28
71206;SHT31;58935;54.498;18.544;2023-07-02T12:15:46;20.66;57.64
71206;SHT31;58935;54.498;18.544;2023-07-02T12:18:13;20.81;57.20
71206;SHT31;58935;54.498;18.544;2023-07-02T12:20:39;21.06;57.73
71206;SHT31;58935;54.498;18.544;2023-07-02T12:23:05;21.31;56.40
71206;SHT31;58935;54.498;18.544;2023-07-02T12:25:33;21.44;55.39
71206;SHT31;58935;54.498;18.544;2023-07-02T12:28:01;21.39;55.78
71206;SHT31;58935;54.498;18.544;2023-07-02T12:30:29;21.36;55.78
71206;SHT31;58935;54.498;18.544;2023-07-02T12:32:54;21.37;55.14
71206;SHT31;58935;54.498;18.544;2023-07-02T12:35:20;21.38;54.36
71206;SHT31;58935;54.498;18.544;2023-07-02T12:37:46;21.39;53.80
71206;SHT31;58935;54.498;18.544;2023-07-02T12:40:15;21.53;53.10
71206;SHT31;58935;54.498;18.544;2023-07-02T12:42:41;21.55;52.58
71206;SHT31;58935;54.498;18.544;2023-07-02T12:45:08;21.50;52.88
71206;SHT31;58935;54.498;18.544;2023-07-02T12:47:35;21.58;52.64
71206;SHT31;58935;54.498;18.544;2023-07-02T12:50:01;21.70;51.07
71206;SHT31;58935;54.498;18.544;2023-07-02T12:52:28;21.63;50.50
71206;SHT31;58935;54.498;18.544;2023-07-02T12:54:54;21.71;50.29
71206;SHT31;58935;54.498;18.544;2023-07-02T12:57:20;21.72;51.01
71206;SHT31;58935;54.498;18.544;2023-07-02T12:59:45;21.61;49.60
71206;SHT31;58935;54.498;18.544;2023-07-02T13:02:10;21.51;48.36
71206;SHT31;58935;54.498;18.544;2023-07-02T13:04:36;21.47;47.62
71206;SHT31;58935;54.498;18.544;2023-07-02T13:07:05;21.51;48.58
71206;SHT31;58935;54.498;18.544;2023-07-02T13:09:31;21.61;48.17
71206;SHT31;58935;54.498;18.544;2023-07-02T13:11:56;21.76;47.71
71206;SHT31;58935;54.498;18.544;2023-07-02T13:14:22;21.83;46.81
71206;SHT31;58935;54.498;18.544;2023-07-02T13:16:47;21.87;46.31
71206;SHT31;58935;54.498;18.544;2023-07-02T13:19:13;21.88;46.57
71206;SHT31;58935;54.498;18.544;2023-07-02T13:21:40;22.00;46.36
71206;SHT31;58935;54.498;18.544;2023-07-02T13:24:07;22.16;46.03
71206;SHT31;58935;54.498;18.544;2023-07-02T13:26:37;22.35;45.37
71206;SHT31;58935;54.498;18.544;2023-07-02T13:29:03;22.46;44.07
71206;SHT31;58935;54.498;18.544;2023-07-02T13:31:28;22.50;43.11
71206;SHT31;58935;54.498;18.544;2023-07-02T13:33:53;22.52;43.99
71206;SHT31;58935;54.498;18.544;2023-07-02T13:36:19;22.40;44.02
71206;SHT31;58935;54.498;18.544;2023-07-02T13:38:44;22.35;44.91
71206;SHT31;58935;54.498;18.544;2023-07-02T13:41:09;22.45;44.89
71206;SHT31;58935;54.498;18.544;2023-07-02T13:43:37;22.57;44.45
71206;SHT31;58935;54.498;18.544;2023-07-02T13:46:03;22.52;44.59
71206;SHT31;58935;54.498;18.544;2023-07-02T13:48:28;22.36;45.28
71206;SHT31;58935;54.498;18.544;2023-07-02T13:50:54;22.35;45.61
71206;SHT31;58935;54.498;18.544;2023-07-02T13:53:19;22.35;46.16
71206;SHT31;58935;54.498;18.544;2023-07-02T13:55:45;22.20;45.42
71206;SHT31;58935;54.498;18.544;2023-07-02T13:58:10;21.91;45.01
71206;SHT31;58935;54.498;18.544;2023-07-02T14:00:36;21.60;45.46
71206;SHT31;58935;54.498;18.544;2023-07-02T14:03:01;21.34;46.31
71206;SHT31;58935;54.498;18.544;2023-07-02T14:05:28;21.13;47.79
71206;SHT31;58935;54.498;18.544;2023-07-02T14:07:53;21.00;48.72
71206;SHT31;58935;54.498;18.544;2023-07-02T14:10:19;20.93;49.08
71206;SHT31;58935;54.498;18.544;2023-07-02T14:12:44;20.86;48.96
71206;SHT31;58935;54.498;18.544;2023-07-02T14:15:10;20.81;49.04
71206;SHT31;58935;54.498;18.544;2023-07-02T14:17:36;20.75;49.06
71206;SHT31;58935;54.498;18.544;2023-07-02T14:20:02;20.72;48.87
71206;SHT31;58935;54.498;18.544;2023-07-02T14:22:32;20.80;48.55
71206;SHT31;58935;54.498;18.544;2023-07-02T14:24:57;20.99;48.38
71206;SHT31;58935;54.498;18.544;2023-07-02T14:27:25;21.24;48.12
71206;SHT31;58935;54.498;18.544;2023-07-02T14:29:51;21.45;46.47
71206;SHT31;58935;54.498;18.544;2023-07-02T14:32:16;21.56;45.98
71206;SHT31;58935;54.498;18.544;2023-07-02T14:34:42;21.64;45.74
71206;SHT31;58935;54.498;18.544;2023-07-02T14:37:07;21.66;45.61
71206;SHT31;58935;54.498;18.544;2023-07-02T14:39:33;21.71;45.34
71206;SHT31;58935;54.498;18.544;2023-07-02T14:41:58;21.76;45.25
71206;SHT31;58935;54.498;18.544;2023-07-02T14:44:26;21.83;45.66
71206;SHT31;58935;54.498;18.544;2023-07-02T14:46:51;21.94;45.86
71206;SHT31;58935;54.498;18.544;2023-07-02T14:49:17;21.91;45.88
71206;SHT31;58935;54.498;18.544;2023-07-02T14:51:45;21.75;46.02
71206;SHT31;58935;54.498;18.544;2023-07-02T14:54:13;21.50;46.21
71206;SHT31;58935;54.498;18.544;2023-07-02T14:56:38;21.21;47.06
71206;SHT31;58935;54.498;18.544;2023-07-02T14:59:04;20.96;49.11
71206;SHT31;58935;54.498;18.544;2023-07-02T15:01:32;20.63;54.25
71206;SHT31;58935;54.498;18.544;2023-07-02T15:03:59;20.15;55.76
71206;SHT31;58935;54.498;18.544;2023-07-02T15:06:25;19.68;58.47
71206;SHT31;58935;54.498;18.544;2023-07-02T15:08:53;19.25;60.08
71206;SHT31;58935;54.498;18.544;2023-07-02T15:11:18;18.83;61.34
71206;SHT31;58935;54.498;18.544;2023-07-02T15:13:46;18.51;62.21
71206;SHT31;58935;54.498;18.544;2023-07-02T15:16:12;18.28;63.80
71206;SHT31;58935;54.498;18.544;2023-07-02T15:18:38;18.02;64.67
71206;SHT31;58935;54.498;18.544;2023-07-02T15:21:04;17.83;65.52
71206;SHT31;58935;54.498;18.544;2023-07-02T15:23:30;17.66;66.65
71206;SHT31;58935;54.498;18.544;2023-07-02T15:25:58;17.54;67.13
71206;SHT31;58935;54.498;18.544;2023-07-02T15:28:27;17.43;67.05
71206;SHT31;58935;54.498;18.544;2023-07-02T15:30:55;17.37;67.61
71206;SHT31;58935;54.498;18.544;2023-07-02T15:33:30;17.32;67.68
71206;SHT31;58935;54.498;18.544;2023-07-02T15:35:58;17.31;67.95
71206;SHT31;58935;54.498;18.544;2023-07-02T15:38:25;17.33;67.67